createdAt,value
2023-04-01T00:01:44.319Z,2.13
2023-04-01T00:04:10.828Z,2.30
2023-04-01T00:06:37.399Z,2.03
2023-04-01T00:09:04.340Z,2.58
2023-04-01T00:11:32.207Z,1.92
2023-04-01T00:13:58.645Z,2.67
2023-04-01T00:16:25.524Z,1.73
2023-04-01T00:18:52.293Z,2.45
2023-04-01T00:21:19.378Z,2.42
2023-04-01T00:23:45.924Z,2.10
2023-04-01T00:26:13.383Z,2.25
2023-04-01T00:28:40.121Z,2.65
2023-04-01T00:31:10.728Z,2.13
2023-04-01T00:33:37.847Z,2.28
2023-04-01T00:36:14.845Z,2.20
2023-04-01T00:38:42.693Z,2.17
2023-04-01T00:41:10.806Z,2.00
2023-04-01T00:43:37.502Z,1.75
2023-04-01T00:46:04.025Z,1.73
2023-04-01T00:48:38.449Z,1.90
2023-04-01T00:51:15.049Z,1.65
2023-04-01T00:53:44.162Z,2.30
2023-04-01T00:56:18.228Z,2.50
2023-04-01T00:58:47.519Z,2.80
2023-04-01T01:01:14.345Z,2.30
2023-04-01T01:03:40.992Z,2.30
2023-04-01T01:06:10.814Z,2.95
2023-04-01T01:08:52.941Z,2.63
2023-04-01T01:11:23.962Z,2.38
2023-04-01T01:13:57.429Z,2.50
2023-04-01T01:18:50.619Z,3.30
2023-04-01T01:21:35.875Z,3.08
2023-04-01T01:24:14.657Z,2.90
2023-04-01T01:27:00.637Z,3.03
2023-04-01T01:29:46.078Z,3.53
2023-04-01T01:32:21.046Z,4.32
2023-04-01T01:34:53.896Z,3.85
2023-04-01T01:37:21.792Z,4.05
2023-04-01T01:39:50.765Z,3.83
2023-04-01T01:42:19.245Z,4.25
2023-04-01T01:44:46.897Z,4.82
2023-04-01T01:47:14.659Z,5.20
2023-04-01T01:49:42.830Z,6.60
2023-04-01T01:52:09.293Z,6.80
2023-04-01T01:54:35.785Z,6.32
2023-04-01T01:57:08.043Z,6.75
2023-04-01T01:59:36.863Z,6.57
2023-04-01T02:02:08.888Z,6.95
2023-04-01T02:04:37.254Z,6.68
2023-04-01T02:07:05.518Z,6.47
2023-04-01T02:09:32.314Z,6.15
2023-04-01T02:12:00.953Z,6.38
2023-04-01T02:14:32.956Z,6.00
2023-04-01T02:17:02.593Z,6.13
2023-04-01T02:19:32.457Z,6.07
2023-04-01T02:22:00.607Z,5.63
2023-04-01T02:24:28.169Z,5.63
2023-04-01T02:26:54.774Z,5.40
2023-04-01T02:29:22.664Z,6.00
2023-04-01T02:31:50.339Z,5.60
2023-04-01T02:34:16.919Z,5.60
2023-04-01T02:36:43.674Z,6.22
2023-04-01T02:39:10.133Z,5.82
2023-04-01T02:41:43.868Z,4.95
2023-04-01T02:44:11.570Z,4.93
2023-04-01T02:46:38.490Z,3.90
2023-04-01T02:49:05.002Z,3.30
2023-04-01T02:51:32.659Z,3.60
2023-04-01T02:53:59.625Z,3.70
2023-04-01T02:56:27.079Z,3.60
2023-04-01T02:58:54.101Z,3.45
2023-04-01T03:01:20.804Z,3.42
2023-04-01T03:03:47.322Z,3.63
2023-04-01T03:06:14.925Z,3.15
2023-04-01T03:08:41.452Z,3.85
2023-04-01T03:11:07.950Z,3.65
2023-04-01T03:13:34.441Z,3.53
2023-04-01T03:16:01.044Z,4.10
2023-04-01T03:18:27.513Z,4.30
2023-04-01T03:20:54.002Z,4.85
2023-04-01T03:23:22.078Z,4.90
2023-04-01T03:25:49.216Z,6.00
2023-04-01T03:28:15.667Z,6.95
2023-04-01T03:30:42.180Z,6.90
2023-04-01T03:33:08.709Z,8.30
2023-04-01T03:35:37.052Z,8.27
2023-04-01T03:38:03.760Z,8.13
2023-04-01T03:40:30.429Z,8.07
2023-04-01T03:42:57.332Z,8.68
2023-04-01T03:45:23.886Z,8.57
2023-04-01T03:47:50.445Z,8.80
2023-04-01T03:50:17.019Z,9.32
2023-04-01T03:52:43.507Z,10.23
2023-04-01T03:55:10.035Z,11.50
2023-04-01T03:57:36.563Z,12.00
2023-04-01T04:00:03.384Z,11.35
2023-04-01T04:02:29.959Z,11.05
2023-04-01T04:04:56.534Z,11.07
2023-04-01T04:07:23.016Z,11.07
2023-04-01T04:09:49.443Z,9.30
2023-04-01T04:12:15.988Z,9.55
2023-04-01T04:14:42.565Z,9.38
2023-04-01T04:17:14.749Z,7.03
2023-04-01T04:19:41.290Z,7.72
2023-04-01T04:22:07.781Z,6.65
2023-04-01T04:24:35.567Z,6.65
2023-04-01T04:27:02.079Z,6.80
2023-04-01T04:29:28.864Z,7.13
2023-04-01T04:31:55.423Z,5.90
2023-04-01T04:34:23.404Z,6.25
2023-04-01T04:36:50.054Z,6.07
2023-04-01T04:39:16.681Z,5.70
2023-04-01T04:41:43.154Z,6.68
2023-04-01T04:44:09.664Z,6.20
2023-04-01T04:46:37.406Z,6.70
2023-04-01T04:49:03.961Z,6.15
2023-04-01T04:51:30.517Z,5.88
2023-04-01T04:53:57.000Z,6.85
2023-04-01T04:56:23.755Z,7.47
2023-04-01T04:58:50.184Z,7.78
2023-04-01T05:01:17.372Z,7.95
2023-04-01T05:03:44.126Z,8.02
2023-04-01T05:06:12.475Z,8.52
2023-04-01T05:08:40.448Z,8.52
2023-04-01T05:11:17.651Z,8.77
2023-04-01T05:13:44.435Z,8.38
2023-04-01T05:16:12.424Z,7.65
2023-04-01T05:18:38.941Z,7.22
2023-04-01T05:21:06.191Z,6.90
2023-04-01T05:23:33.151Z,6.38
2023-04-01T05:26:00.332Z,7.18
2023-04-01T05:28:26.842Z,6.20
2023-04-01T05:30:53.331Z,6.72
2023-04-01T05:33:19.839Z,5.53
2023-04-01T05:35:46.334Z,5.95
2023-04-01T05:38:12.805Z,6.22
2023-04-01T05:40:39.421Z,6.10
2023-04-01T05:43:05.936Z,6.05
2023-04-01T05:45:33.704Z,5.53
2023-04-01T05:48:00.580Z,5.05
2023-04-01T05:50:27.375Z,5.07
2023-04-01T05:52:53.928Z,4.57
2023-04-01T05:55:20.623Z,4.93
2023-04-01T05:57:47.396Z,5.95
2023-04-01T06:00:14.127Z,5.47
2023-04-01T06:02:40.797Z,5.45
2023-04-01T06:05:16.384Z,5.75
2023-04-01T06:07:42.906Z,5.55
2023-04-01T06:10:17.140Z,6.20
2023-04-01T06:12:51.396Z,5.95
2023-04-01T06:15:33.419Z,5.95
2023-04-01T06:18:20.636Z,6.47
2023-04-01T06:20:53.241Z,5.90
2023-04-01T06:23:28.829Z,4.53
2023-04-01T06:26:04.464Z,4.13
2023-04-01T06:28:51.836Z,3.97
2023-04-01T06:31:37.267Z,4.00
2023-04-01T06:34:22.546Z,4.15
2023-04-01T06:37:07.957Z,5.22
2023-04-01T06:39:57.942Z,5.63
2023-04-01T06:42:43.055Z,5.90
2023-04-01T06:45:21.904Z,6.53
2023-04-01T06:47:54.267Z,6.85
2023-04-01T06:50:25.790Z,6.57
2023-04-01T06:52:59.481Z,7.30
2023-04-01T06:55:28.585Z,7.80
2023-04-01T06:57:56.937Z,8.27
2023-04-01T07:00:34.346Z,8.48
2023-04-01T07:03:19.633Z,9.73
2023-04-01T07:05:46.544Z,9.27
2023-04-01T07:08:16.215Z,9.45
2023-04-01T07:10:51.947Z,9.48
2023-04-01T07:13:22.494Z,9.32
2023-04-01T07:16:04.729Z,8.98
2023-04-01T07:18:54.508Z,8.88
2023-04-01T07:21:41.601Z,9.05
2023-04-01T07:24:13.145Z,8.90
2023-04-01T07:26:39.720Z,8.95
2023-04-01T07:29:07.016Z,9.38
2023-04-01T07:31:55.785Z,9.23
2023-04-01T07:34:31.682Z,9.02
2023-04-01T07:37:05.843Z,9.63
2023-04-01T07:39:41.312Z,10.57
2023-04-01T07:42:07.912Z,9.15
2023-04-01T07:44:54.603Z,8.80
2023-04-01T07:47:39.987Z,9.27
2023-04-01T07:50:12.524Z,10.02
2023-04-01T07:52:44.770Z,10.55
2023-04-01T07:55:15.556Z,12.27
2023-04-01T07:57:47.052Z,12.65
2023-04-01T08:00:33.774Z,12.80
2023-04-01T08:03:06.283Z,14.05
2023-04-01T08:05:35.905Z,13.80
2023-04-01T08:08:07.186Z,14.48
2023-04-01T08:10:37.674Z,14.63
2023-04-01T08:13:07.164Z,14.98
2023-04-01T08:15:39.565Z,15.30
2023-04-01T08:18:21.559Z,15.52
2023-04-01T08:20:59.437Z,14.93
2023-04-01T08:23:28.820Z,15.38
2023-04-01T08:25:55.581Z,14.27
2023-04-01T08:28:35.638Z,14.60
2023-04-01T08:31:02.063Z,15.07
2023-04-01T08:33:30.503Z,15.00
2023-04-01T08:36:07.104Z,16.05
2023-04-01T08:38:39.818Z,14.57
2023-04-01T08:41:38.780Z,13.47
2023-04-01T08:44:05.338Z,14.70
2023-04-01T08:47:04.503Z,13.27
2023-04-01T08:49:40.129Z,14.63
2023-04-01T08:52:06.522Z,12.88
2023-04-01T08:54:39.197Z,12.63
2023-04-01T08:57:11.863Z,13.70
2023-04-01T08:59:47.588Z,13.43
2023-04-01T09:02:17.200Z,11.63
2023-04-01T09:05:07.550Z,11.93
2023-04-01T09:07:37.112Z,11.90
2023-04-01T09:10:15.984Z,11.85
2023-04-01T09:12:57.768Z,12.25
2023-04-01T09:15:27.326Z,13.48
2023-04-01T09:17:58.712Z,12.88
2023-04-01T09:20:26.601Z,12.70
2023-04-01T09:22:59.241Z,12.18
2023-04-01T09:25:32.049Z,11.73
2023-04-01T09:28:01.799Z,10.98
2023-04-01T09:30:40.621Z,11.80
2023-04-01T09:33:10.304Z,10.77
2023-04-01T09:36:03.738Z,10.98
2023-04-01T09:38:31.597Z,8.63
2023-04-01T09:40:58.228Z,7.95
2023-04-01T09:43:28.986Z,7.85
2023-04-01T09:46:19.608Z,8.40
2023-04-01T09:49:05.538Z,7.22
2023-04-01T09:51:34.975Z,5.47
2023-04-01T09:54:16.902Z,5.97
2023-04-01T09:57:05.362Z,5.32
2023-04-01T09:59:34.981Z,5.57
2023-04-01T10:02:24.888Z,5.30
2023-04-01T10:05:01.100Z,5.43
2023-04-01T10:07:27.723Z,5.25
2023-04-01T10:10:06.779Z,4.78
2023-04-01T10:12:52.348Z,4.53
2023-04-01T10:15:22.103Z,3.55
2023-04-01T10:18:22.113Z,3.58
2023-04-01T10:20:48.630Z,2.90
2023-04-01T10:23:24.315Z,3.30
2023-04-01T10:26:09.523Z,3.47
2023-04-01T10:28:54.932Z,2.72
2023-04-01T10:31:24.665Z,2.40
2023-04-01T10:33:54.223Z,2.20
2023-04-01T10:36:29.599Z,2.58
2023-04-01T10:39:12.110Z,2.85
2023-04-01T10:41:41.710Z,2.70
2023-04-01T10:44:20.729Z,2.95
2023-04-01T10:46:53.858Z,2.80
2023-04-01T10:49:26.547Z,2.63
2023-04-01T10:52:08.952Z,2.65
2023-04-01T10:55:11.223Z,2.60
2023-04-01T10:57:37.726Z,2.17
2023-04-01T11:00:22.754Z,2.42
2023-04-01T11:03:07.742Z,1.98
2023-04-01T11:05:57.597Z,1.85
2023-04-01T11:08:43.689Z,2.17
2023-04-01T11:11:15.338Z,2.05
2023-04-01T11:14:00.568Z,1.80
2023-04-01T11:16:46.238Z,2.30
2023-04-01T11:19:25.008Z,1.92
2023-04-01T11:22:10.732Z,1.70
2023-04-01T11:24:56.123Z,2.28
2023-04-01T11:27:42.919Z,2.10
2023-04-01T11:30:22.495Z,1.90
2023-04-01T11:32:58.007Z,2.00
2023-04-01T11:35:43.483Z,1.95
2023-04-01T11:38:33.537Z,1.45
2023-04-01T11:41:18.704Z,1.63
2023-04-01T11:43:50.807Z,1.42
2023-04-01T11:46:20.297Z,1.20
2023-04-01T11:48:56.484Z,1.10
2023-04-01T11:51:23.183Z,1.38
2023-04-01T11:54:06.700Z,1.20
2023-04-01T11:56:44.375Z,1.30
2023-04-01T11:59:28.813Z,1.63
2023-04-01T12:02:01.318Z,1.80
2023-04-01T12:04:46.728Z,1.48
2023-04-01T12:07:31.947Z,2.15
2023-04-01T12:10:25.001Z,2.00
2023-04-01T12:13:01.917Z,1.80
2023-04-01T12:15:47.487Z,1.38
2023-04-01T12:18:18.665Z,1.50
2023-04-01T12:20:52.385Z,1.83
2023-04-01T12:23:30.654Z,1.80
2023-04-01T12:26:15.738Z,2.45
2023-04-01T12:28:59.706Z,1.63
2023-04-01T12:31:40.501Z,1.77
2023-04-01T12:34:25.813Z,2.15
2023-04-01T12:36:55.033Z,1.55
2023-04-01T12:39:26.047Z,1.80
2023-04-01T12:42:11.430Z,2.00
2023-04-01T12:44:38.076Z,2.08
2023-04-01T12:47:23.687Z,2.33
2023-04-01T12:50:02.472Z,2.17
2023-04-01T12:52:40.558Z,2.10
2023-04-01T12:55:16.463Z,2.30
2023-04-01T12:57:49.121Z,2.03
2023-04-01T13:00:43.344Z,2.53
2023-04-01T13:03:11.407Z,2.65
2023-04-01T13:05:44.180Z,2.50
2023-04-01T13:08:20.134Z,2.85
2023-04-01T13:10:59.265Z,3.70
2023-04-01T13:13:40.770Z,4.43
2023-04-01T13:16:10.487Z,4.65
2023-04-01T13:19:00.437Z,4.38
2023-04-01T13:21:26.933Z,4.78
2023-04-01T13:23:53.409Z,4.40
2023-04-01T13:26:35.828Z,4.38
2023-04-01T13:29:02.328Z,4.18
2023-04-01T13:31:47.308Z,3.75
2023-04-01T13:34:13.831Z,3.45
2023-04-01T13:36:56.251Z,3.40
2023-04-01T13:39:45.649Z,4.30
2023-04-01T13:42:30.935Z,3.40
2023-04-01T13:45:12.055Z,3.83
2023-04-01T13:47:57.351Z,4.00
2023-04-01T13:50:43.352Z,4.00
2023-04-01T13:53:28.574Z,2.80
2023-04-01T13:56:04.249Z,2.50
2023-04-01T13:58:40.305Z,2.58
2023-04-01T14:01:10.044Z,2.80
2023-04-01T14:03:42.375Z,2.78
2023-04-01T14:06:27.808Z,2.67
2023-04-01T14:09:09.555Z,2.60
2023-04-01T14:11:39.176Z,2.53
2023-04-01T14:14:24.405Z,1.98
2023-04-01T14:17:06.409Z,2.28
2023-04-01T14:19:51.601Z,2.15
2023-04-01T14:22:24.625Z,2.05
2023-04-01T14:24:51.095Z,2.20
2023-04-01T14:27:17.541Z,1.83
2023-04-01T14:29:51.952Z,2.55
2023-04-01T14:32:38.825Z,2.35
2023-04-01T14:35:37.956Z,2.40
2023-04-01T14:38:26.004Z,2.90
2023-04-01T14:41:01.803Z,2.58
2023-04-01T14:43:34.647Z,2.88
2023-04-01T14:46:01.715Z,2.60
2023-04-01T14:48:54.698Z,2.50
2023-04-01T14:51:34.578Z,2.28
2023-04-01T14:54:26.507Z,1.85
2023-04-01T14:57:13.528Z,1.85
2023-04-01T14:59:41.840Z,2.15
2023-04-01T15:02:14.371Z,1.60
2023-04-01T15:04:54.438Z,2.05
2023-04-01T15:07:39.918Z,1.63
2023-04-01T15:10:20.860Z,1.42
2023-04-01T15:12:53.708Z,1.67
2023-04-01T15:15:32.726Z,1.40
2023-04-01T15:18:11.418Z,1.08
2023-04-01T15:20:37.983Z,1.10
2023-04-01T15:23:13.913Z,1.17
2023-04-01T15:25:51.993Z,1.00
2023-04-01T15:28:36.615Z,1.35
2023-04-01T15:31:03.202Z,1.20
2023-04-01T15:33:44.977Z,1.00
2023-04-01T15:36:25.154Z,1.20
2023-04-01T15:38:56.752Z,1.23
2023-04-01T15:41:46.511Z,1.30
2023-04-01T15:44:31.418Z,1.00
2023-04-01T15:46:59.054Z,1.20
2023-04-01T15:49:35.435Z,1.48
2023-04-01T15:52:22.508Z,1.50
2023-04-01T15:55:05.061Z,1.40
2023-04-01T15:57:40.678Z,1.50
2023-04-01T16:00:27.767Z,1.35
2023-04-01T16:03:00.478Z,1.83
2023-04-01T16:05:47.768Z,2.10
2023-04-01T16:08:17.275Z,1.55
2023-04-01T16:10:49.765Z,2.22
2023-04-01T16:13:25.377Z,1.55
2023-04-01T16:15:54.828Z,1.52
2023-04-01T16:18:25.885Z,1.50
2023-04-01T16:20:55.833Z,1.70
2023-04-01T16:23:24.838Z,1.60
2023-04-01T16:26:06.438Z,1.92
2023-04-01T16:28:37.001Z,1.77
2023-04-01T16:31:16.022Z,2.30
2023-04-01T16:33:42.539Z,2.03
2023-04-01T16:36:12.324Z,2.22
2023-04-01T16:38:43.104Z,2.92
2023-04-01T16:41:22.710Z,2.88
2023-04-01T16:43:55.442Z,2.88
2023-04-01T16:46:41.679Z,3.20
2023-04-01T16:49:17.385Z,3.30
2023-04-01T16:51:43.841Z,3.05
2023-04-01T16:54:31.129Z,3.72
2023-04-01T16:57:03.909Z,4.60
2023-04-01T16:59:35.798Z,5.07
2023-04-01T17:02:11.538Z,5.30
2023-04-01T17:04:55.836Z,6.13
2023-04-01T17:07:22.385Z,6.47
2023-04-01T17:10:07.802Z,6.55
2023-04-01T17:12:53.056Z,7.32
2023-04-01T17:15:28.523Z,8.02
2023-04-01T17:18:00.109Z,8.10
2023-04-01T17:20:26.702Z,8.45
2023-04-01T17:23:13.493Z,8.82
2023-04-01T17:25:39.943Z,9.48
2023-04-01T17:28:11.138Z,9.75
2023-04-01T17:30:43.705Z,10.55
2023-04-01T17:33:16.922Z,10.60
2023-04-01T17:35:49.239Z,11.10
2023-04-01T17:38:24.938Z,11.02
2023-04-01T17:40:58.750Z,12.07
2023-04-01T17:43:40.603Z,11.20
2023-04-01T17:46:27.433Z,11.50
2023-04-01T17:49:02.821Z,11.90
2023-04-01T17:51:44.516Z,12.48
2023-04-01T17:54:28.825Z,11.73
2023-04-01T17:57:10.879Z,11.77
2023-04-01T17:59:46.681Z,12.23
2023-04-01T18:02:21.774Z,12.75
2023-04-01T18:04:58.057Z,12.93
2023-04-01T18:07:44.921Z,12.52
2023-04-01T18:10:32.661Z,13.27
2023-04-01T18:13:18.267Z,13.02
2023-04-01T18:15:46.152Z,13.82
2023-04-01T18:18:31.635Z,13.93
2023-04-01T18:21:04.310Z,14.00
2023-04-01T18:23:30.860Z,13.87
2023-04-01T18:26:06.170Z,13.82
2023-04-01T18:28:49.021Z,14.07
2023-04-01T18:31:26.131Z,13.40
2023-04-01T18:34:12.397Z,13.77
2023-04-01T18:37:08.940Z,14.25
2023-04-01T18:39:51.573Z,14.38
2023-04-01T18:42:22.903Z,14.65
2023-04-01T18:44:51.460Z,14.35
2023-04-01T18:47:39.464Z,13.93
2023-04-01T18:50:23.987Z,13.43
2023-04-01T18:52:53.281Z,13.30
2023-04-01T18:55:24.738Z,13.38
2023-04-01T18:57:53.944Z,12.23
2023-04-01T19:00:26.562Z,12.73
2023-04-01T19:03:05.588Z,11.27
2023-04-01T19:05:33.704Z,9.55
2023-04-01T19:08:24.258Z,10.02
2023-04-01T19:11:05.143Z,9.43
2023-04-01T19:13:43.996Z,9.20
2023-04-01T19:16:29.500Z,9.75
2023-04-01T19:19:03.804Z,8.63
2023-04-01T19:21:36.304Z,9.25
2023-04-01T19:24:35.253Z,9.38
2023-04-01T19:27:17.184Z,9.50
2023-04-01T19:30:02.529Z,9.15
2023-04-01T19:32:41.321Z,8.93
2023-04-01T19:35:14.068Z,8.48
2023-04-01T19:37:41.737Z,7.55
2023-04-01T19:40:31.976Z,7.57
2023-04-01T19:43:37.425Z,7.22
2023-04-01T19:46:03.891Z,6.63
2023-04-01T19:48:42.418Z,6.30
2023-04-01T19:51:11.498Z,6.93
2023-04-01T19:53:41.900Z,7.38
2023-04-01T19:56:16.000Z,7.68
2023-04-01T19:58:46.571Z,7.82
2023-04-01T20:01:18.171Z,8.70
2023-04-01T20:03:59.735Z,9.30
2023-04-01T20:06:53.455Z,9.07
2023-04-01T20:09:52.565Z,9.75
2023-04-01T20:12:44.604Z,10.13
2023-04-01T20:15:25.374Z,11.30
2023-04-01T20:17:53.145Z,12.13
2023-04-01T20:20:27.343Z,12.05
2023-04-01T20:23:06.067Z,12.68
2023-04-01T20:25:45.077Z,12.07
2023-04-01T20:28:33.790Z,12.23
2023-04-01T20:31:06.416Z,13.57
2023-04-01T20:33:52.936Z,12.10
2023-04-01T20:36:38.356Z,12.20
2023-04-01T20:39:04.914Z,11.50
2023-04-01T20:41:34.432Z,11.95
2023-04-01T20:44:13.894Z,11.68
2023-04-01T20:46:53.490Z,12.43
2023-04-01T20:49:19.928Z,12.60
2023-04-01T20:51:49.013Z,12.20
2023-04-01T20:54:27.920Z,11.07
2023-04-01T20:57:13.458Z,10.90
2023-04-01T20:59:45.970Z,10.05
2023-04-01T21:02:32.167Z,9.30
2023-04-01T21:05:11.570Z,9.90
2023-04-01T21:07:57.755Z,9.52
2023-04-01T21:10:27.240Z,9.55
2023-04-01T21:13:12.621Z,8.60
2023-04-01T21:15:39.104Z,9.73
2023-04-01T21:18:13.529Z,10.00
2023-04-01T21:20:57.953Z,10.20
2023-04-01T21:23:24.446Z,9.68
2023-04-01T21:25:51.724Z,9.73
2023-04-01T21:28:35.743Z,9.52
2023-04-01T21:31:09.452Z,9.60
2023-04-01T21:33:42.347Z,10.60
2023-04-01T21:36:21.944Z,10.55
2023-04-01T21:38:57.928Z,10.10
2023-04-01T21:41:24.351Z,10.43
2023-04-01T21:43:56.987Z,11.25
2023-04-01T21:46:42.364Z,12.33
2023-04-01T21:49:21.142Z,10.15
2023-04-01T21:51:55.830Z,9.85
2023-04-01T21:54:25.356Z,10.48
2023-04-01T21:56:51.770Z,10.90
2023-04-01T21:59:18.376Z,10.10
2023-04-01T22:01:54.230Z,9.80
2023-04-01T22:04:40.989Z,9.02
2023-04-01T22:07:36.860Z,7.80
2023-04-01T22:10:12.634Z,8.75
2023-04-01T22:12:39.105Z,8.45
2023-04-01T22:15:20.811Z,8.00
2023-04-01T22:18:04.331Z,8.32
2023-04-01T22:20:38.184Z,7.55
2023-04-01T22:23:16.964Z,7.20
2023-04-01T22:25:47.661Z,6.72
2023-04-01T22:28:17.918Z,7.15
2023-04-01T22:30:50.153Z,6.95
2023-04-01T22:33:32.226Z,6.57
2023-04-01T22:36:01.846Z,6.60
2023-04-01T22:38:46.896Z,7.07
2023-04-01T22:41:23.113Z,5.88
2023-04-01T22:43:50.830Z,5.50
2023-04-01T22:46:38.202Z,5.88
2023-04-01T22:49:04.621Z,6.03
2023-04-01T22:51:41.437Z,6.28
2023-04-01T22:54:20.101Z,6.78
2023-04-01T22:56:49.316Z,7.40
2023-04-01T22:59:37.970Z,7.72
2023-04-01T23:02:08.289Z,8.23
2023-04-01T23:04:38.678Z,8.90
2023-04-01T23:07:17.443Z,9.25
2023-04-01T23:09:44.299Z,9.15
2023-04-01T23:12:12.034Z,9.88
2023-04-01T23:14:44.594Z,9.95
2023-04-01T23:17:17.887Z,10.27
2023-04-01T23:19:51.006Z,11.30
2023-04-01T23:22:17.688Z,10.98
2023-04-01T23:24:51.772Z,12.20
2023-04-01T23:27:24.503Z,12.23
2023-04-01T23:29:51.011Z,12.33
2023-04-01T23:32:19.305Z,11.77
2023-04-01T23:34:50.473Z,12.77
2023-04-01T23:37:18.884Z,12.38
2023-04-01T23:39:47.485Z,12.00
2023-04-01T23:42:21.996Z,12.70
2023-04-01T23:44:50.106Z,12.93
2023-04-01T23:47:29.188Z,13.27
2023-04-01T23:50:07.915Z,14.35
2023-04-01T23:52:42.945Z,13.98
2023-04-01T23:55:12.476Z,13.73
2023-04-01T23:57:39.289Z,14.70
